sensor_id;sensor_type;location;lat;lon;timestamp;P1;durP1;ratioP1;P2;durP2;ratioP2
57191;SDS011;43052;52.588;13.396;2022-11-20T00:01:42;19.38;;;11.95;;
57191;SDS011;43052;52.588;13.396;2022-11-20T00:04:08;18.98;;;12.07;;
57191;SDS011;43052;52.588;13.396;2022-11-20T00:06:33;18.80;;;12.30;;
57191;SDS011;43052;52.588;13.396;2022-11-20T00:08:59;18.02;;;11.07;;
57191;SDS011;43052;52.588;13.396;2022-11-20T00:11:26;19.65;;;12.05;;
57191;SDS011;43052;52.588;13.396;2022-11-20T00:13:53;18.67;;;12.10;;
57191;SDS011;43052;52.588;13.396;2022-11-20T00:16:22;18.38;;;12.82;;
57191;SDS011;43052;52.588;13.396;2022-11-20T00:18:49;18.60;;;11.90;;
57191;SDS011;43052;52.588;13.396;2022-11-20T00:21:16;18.60;;;11.77;;
57191;SDS011;43052;52.588;13.396;2022-11-20T00:23:43;19.25;;;12.38;;
57191;SDS011;43052;52.588;13.396;2022-11-20T00:26:09;18.25;;;11.95;;
57191;SDS011;43052;52.588;13.396;2022-11-20T00:28:37;18.60;;;11.90;;
57191;SDS011;43052;52.588;13.396;2022-11-20T00:31:03;18.15;;;11.75;;
57191;SDS011;43052;52.588;13.396;2022-11-20T00:33:30;19.73;;;12.40;;
57191;SDS011;43052;52.588;13.396;2022-11-20T00:35:59;18.45;;;11.30;;
57191;SDS011;43052;52.588;13.396;2022-11-20T00:38:32;19.65;;;12.10;;
57191;SDS011;43052;52.588;13.396;2022-11-20T00:40:58;17.52;;;10.57;;
57191;SDS011;43052;52.588;13.396;2022-11-20T00:43:25;19.05;;;11.00;;
57191;SDS011;43052;52.588;13.396;2022-11-20T00:45:50;20.10;;;11.60;;
57191;SDS011;43052;52.588;13.396;2022-11-20T00:48:20;21.05;;;12.68;;
57191;SDS011;43052;52.588;13.396;2022-11-20T00:50:46;18.50;;;11.85;;
57191;SDS011;43052;52.588;13.396;2022-11-20T00:53:11;18.27;;;11.93;;
57191;SDS011;43052;52.588;13.396;2022-11-20T00:55:36;19.85;;;12.32;;
57191;SDS011;43052;52.588;13.396;2022-11-20T00:58:01;16.98;;;11.35;;
57191;SDS011;43052;52.588;13.396;2022-11-20T01:00:27;18.65;;;11.90;;
57191;SDS011;43052;52.588;13.396;2022-11-20T01:02:52;19.42;;;12.52;;
57191;SDS011;43052;52.588;13.396;2022-11-20T01:05:17;19.50;;;12.90;;
57191;SDS011;43052;52.588;13.396;2022-11-20T01:07:42;19.65;;;11.90;;
57191;SDS011;43052;52.588;13.396;2022-11-20T01:10:08;20.15;;;13.27;;
57191;SDS011;43052;52.588;13.396;2022-11-20T01:12:33;18.88;;;12.02;;
57191;SDS011;43052;52.588;13.396;2022-11-20T01:14:58;19.85;;;12.80;;
57191;SDS011;43052;52.588;13.396;2022-11-20T01:17:23;19.10;;;12.57;;
57191;SDS011;43052;52.588;13.396;2022-11-20T01:19:49;19.55;;;12.82;;
57191;SDS011;43052;52.588;13.396;2022-11-20T01:22:15;18.08;;;11.73;;
57191;SDS011;43052;52.588;13.396;2022-11-20T01:24:40;19.33;;;11.75;;
57191;SDS011;43052;52.588;13.396;2022-11-20T01:27:06;19.48;;;11.95;;
57191;SDS011;43052;52.588;13.396;2022-11-20T01:29:31;17.80;;;11.40;;
57191;SDS011;43052;52.588;13.396;2022-11-20T01:31:56;18.60;;;12.27;;
57191;SDS011;43052;52.588;13.396;2022-11-20T01:34:22;18.10;;;11.80;;
57191;SDS011;43052;52.588;13.396;2022-11-20T01:36:47;18.08;;;11.27;;
57191;SDS011;43052;52.588;13.396;2022-11-20T01:39:18;18.40;;;12.60;;
57191;SDS011;43052;52.588;13.396;2022-11-20T01:41:45;18.45;;;12.25;;
57191;SDS011;43052;52.588;13.396;2022-11-20T01:47:35;19.00;;;11.27;;
57191;SDS011;43052;52.588;13.396;2022-11-20T01:50:12;19.15;;;12.23;;
57191;SDS011;43052;52.588;13.396;2022-11-20T01:52:50;19.58;;;12.20;;
57191;SDS011;43052;52.588;13.396;2022-11-20T01:55:39;17.95;;;11.95;;
57191;SDS011;43052;52.588;13.396;2022-11-20T01:58:09;18.77;;;11.57;;
57191;SDS011;43052;52.588;13.396;2022-11-20T02:00:35;19.08;;;12.02;;
57191;SDS011;43052;52.588;13.396;2022-11-20T02:03:01;18.77;;;12.20;;
57191;SDS011;43052;52.588;13.396;2022-11-20T02:05:32;18.60;;;12.73;;
57191;SDS011;43052;52.588;13.396;2022-11-20T02:08:03;19.33;;;12.98;;
57191;SDS011;43052;52.588;13.396;2022-11-20T02:10:29;17.77;;;11.63;;
57191;SDS011;43052;52.588;13.396;2022-11-20T02:12:55;21.27;;;12.15;;
57191;SDS011;43052;52.588;13.396;2022-11-20T02:15:40;21.75;;;12.25;;
57191;SDS011;43052;52.588;13.396;2022-11-20T02:18:05;16.88;;;11.15;;
57191;SDS011;43052;52.588;13.396;2022-11-20T02:20:31;18.25;;;11.15;;
57191;SDS011;43052;52.588;13.396;2022-11-20T02:22:58;20.67;;;12.77;;
57191;SDS011;43052;52.588;13.396;2022-11-20T02:25:28;19.23;;;12.52;;
57191;SDS011;43052;52.588;13.396;2022-11-20T02:27:55;19.50;;;11.90;;
57191;SDS011;43052;52.588;13.396;2022-11-20T02:30:21;19.23;;;12.68;;
57191;SDS011;43052;52.588;13.396;2022-11-20T02:32:46;21.98;;;12.70;;
57191;SDS011;43052;52.588;13.396;2022-11-20T02:37:42;19.77;;;12.18;;
57191;SDS011;43052;52.588;13.396;2022-11-20T02:40:08;20.45;;;12.40;;
57191;SDS011;43052;52.588;13.396;2022-11-20T02:42:34;18.88;;;12.32;;
57191;SDS011;43052;52.588;13.396;2022-11-20T02:45:00;19.15;;;12.80;;
57191;SDS011;43052;52.588;13.396;2022-11-20T02:47:25;20.42;;;13.07;;
57191;SDS011;43052;52.588;13.396;2022-11-20T02:49:50;20.95;;;12.80;;
57191;SDS011;43052;52.588;13.396;2022-11-20T02:52:15;22.73;;;12.70;;
57191;SDS011;43052;52.588;13.396;2022-11-20T02:54:41;19.08;;;12.05;;
57191;SDS011;43052;52.588;13.396;2022-11-20T02:57:06;20.20;;;12.65;;
57191;SDS011;43052;52.588;13.396;2022-11-20T02:59:32;20.73;;;13.40;;
57191;SDS011;43052;52.588;13.396;2022-11-20T03:01:57;21.48;;;13.20;;
57191;SDS011;43052;52.588;13.396;2022-11-20T03:04:22;18.65;;;13.00;;
57191;SDS011;43052;52.588;13.396;2022-11-20T03:06:47;19.77;;;12.27;;
57191;SDS011;43052;52.588;13.396;2022-11-20T03:09:13;19.90;;;12.90;;
57191;SDS011;43052;52.588;13.396;2022-11-20T03:11:38;18.73;;;11.95;;
57191;SDS011;43052;52.588;13.396;2022-11-20T03:14:04;19.55;;;12.23;;
57191;SDS011;43052;52.588;13.396;2022-11-20T03:16:30;19.85;;;12.20;;
57191;SDS011;43052;52.588;13.396;2022-11-20T03:18:56;21.65;;;14.02;;
57191;SDS011;43052;52.588;13.396;2022-11-20T03:21:22;21.05;;;13.32;;
57191;SDS011;43052;52.588;13.396;2022-11-20T03:23:47;19.33;;;12.85;;
57191;SDS011;43052;52.588;13.396;2022-11-20T03:26:19;20.70;;;13.13;;
57191;SDS011;43052;52.588;13.396;2022-11-20T03:28:50;23.10;;;14.02;;
57191;SDS011;43052;52.588;13.396;2022-11-20T03:31:21;22.08;;;13.68;;
57191;SDS011;43052;52.588;13.396;2022-11-20T03:33:48;20.27;;;12.52;;
57191;SDS011;43052;52.588;13.396;2022-11-20T03:36:15;21.75;;;13.98;;
57191;SDS011;43052;52.588;13.396;2022-11-20T03:38:41;22.50;;;13.88;;
57191;SDS011;43052;52.588;13.396;2022-11-20T03:41:09;20.88;;;14.00;;
57191;SDS011;43052;52.588;13.396;2022-11-20T03:43:37;21.40;;;13.55;;
57191;SDS011;43052;52.588;13.396;2022-11-20T03:46:03;21.67;;;14.13;;
57191;SDS011;43052;52.588;13.396;2022-11-20T03:48:30;23.20;;;13.68;;
57191;SDS011;43052;52.588;13.396;2022-11-20T03:53:41;22.17;;;13.68;;
57191;SDS011;43052;52.588;13.396;2022-11-20T03:56:07;22.33;;;13.23;;
57191;SDS011;43052;52.588;13.396;2022-11-20T03:58:34;21.92;;;13.30;;
57191;SDS011;43052;52.588;13.396;2022-11-20T04:01:11;20.10;;;13.65;;
57191;SDS011;43052;52.588;13.396;2022-11-20T04:03:39;23.02;;;13.70;;
57191;SDS011;43052;52.588;13.396;2022-11-20T04:06:15;22.15;;;14.48;;
57191;SDS011;43052;52.588;13.396;2022-11-20T04:08:45;22.80;;;14.88;;
57191;SDS011;43052;52.588;13.396;2022-11-20T04:11:11;24.05;;;13.85;;
57191;SDS011;43052;52.588;13.396;2022-11-20T04:13:41;21.33;;;13.98;;
57191;SDS011;43052;52.588;13.396;2022-11-20T04:16:08;21.98;;;13.73;;
57191;SDS011;43052;52.588;13.396;2022-11-20T04:18:34;22.10;;;13.95;;
57191;SDS011;43052;52.588;13.396;2022-11-20T04:21:00;21.30;;;13.55;;
57191;SDS011;43052;52.588;13.396;2022-11-20T04:23:25;23.27;;;15.32;;
57191;SDS011;43052;52.588;13.396;2022-11-20T04:25:51;21.33;;;13.93;;
57191;SDS011;43052;52.588;13.396;2022-11-20T04:28:17;21.35;;;14.02;;
57191;SDS011;43052;52.588;13.396;2022-11-20T04:30:42;20.83;;;13.50;;
57191;SDS011;43052;52.588;13.396;2022-11-20T04:33:07;23.63;;;14.05;;
57191;SDS011;43052;52.588;13.396;2022-11-20T04:35:36;24.38;;;15.35;;
57191;SDS011;43052;52.588;13.396;2022-11-20T04:38:02;22.27;;;14.85;;
57191;SDS011;43052;52.588;13.396;2022-11-20T04:40:28;21.58;;;14.00;;
57191;SDS011;43052;52.588;13.396;2022-11-20T04:42:54;23.10;;;14.32;;
57191;SDS011;43052;52.588;13.396;2022-11-20T04:45:19;23.55;;;14.77;;
57191;SDS011;43052;52.588;13.396;2022-11-20T04:47:45;23.35;;;14.40;;
57191;SDS011;43052;52.588;13.396;2022-11-20T04:50:10;22.23;;;14.70;;
57191;SDS011;43052;52.588;13.396;2022-11-20T04:52:36;21.90;;;14.95;;
57191;SDS011;43052;52.588;13.396;2022-11-20T04:55:01;22.80;;;13.82;;
57191;SDS011;43052;52.588;13.396;2022-11-20T04:57:26;21.98;;;13.88;;
57191;SDS011;43052;52.588;13.396;2022-11-20T04:59:51;23.25;;;14.77;;
57191;SDS011;43052;52.588;13.396;2022-11-20T05:02:17;23.58;;;14.77;;
57191;SDS011;43052;52.588;13.396;2022-11-20T05:04:42;23.27;;;14.93;;
57191;SDS011;43052;52.588;13.396;2022-11-20T05:07:07;21.95;;;13.90;;
57191;SDS011;43052;52.588;13.396;2022-11-20T05:09:32;22.48;;;14.63;;
57191;SDS011;43052;52.588;13.396;2022-11-20T05:11:58;23.48;;;14.52;;
57191;SDS011;43052;52.588;13.396;2022-11-20T05:14:23;23.70;;;15.05;;
57191;SDS011;43052;52.588;13.396;2022-11-20T05:16:48;23.08;;;14.73;;
57191;SDS011;43052;52.588;13.396;2022-11-20T05:19:13;24.73;;;15.85;;
57191;SDS011;43052;52.588;13.396;2022-11-20T05:21:39;23.60;;;14.95;;
57191;SDS011;43052;52.588;13.396;2022-11-20T05:24:04;21.98;;;13.98;;
57191;SDS011;43052;52.588;13.396;2022-11-20T05:26:30;23.80;;;14.05;;
57191;SDS011;43052;52.588;13.396;2022-11-20T05:28:55;23.80;;;15.00;;
57191;SDS011;43052;52.588;13.396;2022-11-20T05:31:21;24.15;;;14.73;;
57191;SDS011;43052;52.588;13.396;2022-11-20T05:33:48;22.23;;;14.15;;
57191;SDS011;43052;52.588;13.396;2022-11-20T05:36:14;23.23;;;13.85;;
57191;SDS011;43052;52.588;13.396;2022-11-20T05:38:40;21.88;;;14.50;;
57191;SDS011;43052;52.588;13.396;2022-11-20T05:41:09;24.23;;;15.00;;
57191;SDS011;43052;52.588;13.396;2022-11-20T05:43:39;23.92;;;14.90;;
57191;SDS011;43052;52.588;13.396;2022-11-20T05:46:06;24.13;;;14.70;;
57191;SDS011;43052;52.588;13.396;2022-11-20T05:48:33;23.05;;;14.60;;
57191;SDS011;43052;52.588;13.396;2022-11-20T05:50:59;25.63;;;14.18;;
57191;SDS011;43052;52.588;13.396;2022-11-20T05:53:26;24.10;;;14.75;;
57191;SDS011;43052;52.588;13.396;2022-11-20T05:55:58;23.63;;;14.70;;
57191;SDS011;43052;52.588;13.396;2022-11-20T05:58:23;23.98;;;14.63;;
57191;SDS011;43052;52.588;13.396;2022-11-20T06:00:48;23.02;;;13.90;;
57191;SDS011;43052;52.588;13.396;2022-11-20T06:03:13;23.17;;;14.93;;
57191;SDS011;43052;52.588;13.396;2022-11-20T06:05:39;23.38;;;14.70;;
57191;SDS011;43052;52.588;13.396;2022-11-20T06:08:04;25.58;;;15.82;;
57191;SDS011;43052;52.588;13.396;2022-11-20T06:10:29;23.08;;;14.35;;
57191;SDS011;43052;52.588;13.396;2022-11-20T06:12:57;21.90;;;14.02;;
57191;SDS011;43052;52.588;13.396;2022-11-20T06:15:22;24.10;;;14.60;;
57191;SDS011;43052;52.588;13.396;2022-11-20T06:17:51;26.13;;;15.70;;
57191;SDS011;43052;52.588;13.396;2022-11-20T06:20:17;32.47;;;17.88;;
57191;SDS011;43052;52.588;13.396;2022-11-20T06:22:42;29.95;;;17.75;;
57191;SDS011;43052;52.588;13.396;2022-11-20T06:25:07;26.40;;;15.57;;
57191;SDS011;43052;52.588;13.396;2022-11-20T06:27:33;27.48;;;16.58;;
57191;SDS011;43052;52.588;13.396;2022-11-20T06:29:58;28.10;;;17.38;;
57191;SDS011;43052;52.588;13.396;2022-11-20T06:32:23;27.70;;;16.88;;
57191;SDS011;43052;52.588;13.396;2022-11-20T06:34:48;24.83;;;14.80;;
57191;SDS011;43052;52.588;13.396;2022-11-20T06:37:14;24.75;;;14.48;;
57191;SDS011;43052;52.588;13.396;2022-11-20T06:39:39;22.65;;;14.05;;
57191;SDS011;43052;52.588;13.396;2022-11-20T06:42:04;22.17;;;14.18;;
57191;SDS011;43052;52.588;13.396;2022-11-20T06:44:29;25.45;;;15.65;;
57191;SDS011;43052;52.588;13.396;2022-11-20T06:46:55;23.77;;;15.35;;
57191;SDS011;43052;52.588;13.396;2022-11-20T06:49:20;24.58;;;14.63;;
57191;SDS011;43052;52.588;13.396;2022-11-20T06:51:45;25.40;;;15.05;;
57191;SDS011;43052;52.588;13.396;2022-11-20T06:54:10;23.10;;;14.63;;
57191;SDS011;43052;52.588;13.396;2022-11-20T06:56:35;20.80;;;13.38;;
57191;SDS011;43052;52.588;13.396;2022-11-20T06:59:03;24.35;;;13.82;;
57191;SDS011;43052;52.588;13.396;2022-11-20T07:01:30;23.40;;;14.18;;
57191;SDS011;43052;52.588;13.396;2022-11-20T07:03:55;23.63;;;14.18;;
57191;SDS011;43052;52.588;13.396;2022-11-20T07:06:20;24.65;;;14.60;;
57191;SDS011;43052;52.588;13.396;2022-11-20T07:08:45;23.02;;;15.13;;
57191;SDS011;43052;52.588;13.396;2022-11-20T07:11:11;24.55;;;15.00;;
57191;SDS011;43052;52.588;13.396;2022-11-20T07:13:37;23.42;;;14.52;;
57191;SDS011;43052;52.588;13.396;2022-11-20T07:16:03;20.13;;;13.15;;
57191;SDS011;43052;52.588;13.396;2022-11-20T07:18:30;24.42;;;16.25;;
57191;SDS011;43052;52.588;13.396;2022-11-20T07:20:55;25.20;;;16.00;;
57191;SDS011;43052;52.588;13.396;2022-11-20T07:23:20;22.35;;;13.93;;
57191;SDS011;43052;52.588;13.396;2022-11-20T07:25:46;25.52;;;14.75;;
57191;SDS011;43052;52.588;13.396;2022-11-20T07:28:11;21.42;;;13.70;;
57191;SDS011;43052;52.588;13.396;2022-11-20T07:30:36;23.13;;;14.57;;
57191;SDS011;43052;52.588;13.396;2022-11-20T07:33:02;19.40;;;13.60;;
57191;SDS011;43052;52.588;13.396;2022-11-20T07:35:27;20.92;;;13.70;;
57191;SDS011;43052;52.588;13.396;2022-11-20T07:37:53;20.23;;;12.35;;
57191;SDS011;43052;52.588;13.396;2022-11-20T07:40:18;23.33;;;14.82;;
57191;SDS011;43052;52.588;13.396;2022-11-20T07:42:48;24.27;;;14.73;;
57191;SDS011;43052;52.588;13.396;2022-11-20T07:45:14;23.50;;;13.80;;
57191;SDS011;43052;52.588;13.396;2022-11-20T07:47:39;23.17;;;14.57;;
57191;SDS011;43052;52.588;13.396;2022-11-20T07:50:05;22.77;;;13.98;;
57191;SDS011;43052;52.588;13.396;2022-11-20T07:52:30;21.15;;;12.63;;
57191;SDS011;43052;52.588;13.396;2022-11-20T07:54:55;22.13;;;14.02;;
57191;SDS011;43052;52.588;13.396;2022-11-20T07:57:21;21.23;;;13.40;;
57191;SDS011;43052;52.588;13.396;2022-11-20T07:59:46;22.00;;;13.88;;
57191;SDS011;43052;52.588;13.396;2022-11-20T08:02:11;22.70;;;14.80;;
57191;SDS011;43052;52.588;13.396;2022-11-20T08:04:36;23.50;;;13.65;;
57191;SDS011;43052;52.588;13.396;2022-11-20T08:07:02;23.27;;;14.15;;
57191;SDS011;43052;52.588;13.396;2022-11-20T08:09:27;24.38;;;15.82;;
57191;SDS011;43052;52.588;13.396;2022-11-20T08:11:53;22.48;;;14.00;;
57191;SDS011;43052;52.588;13.396;2022-11-20T08:14:57;21.45;;;13.93;;
57191;SDS011;43052;52.588;13.396;2022-11-20T08:17:23;23.10;;;14.57;;
57191;SDS011;43052;52.588;13.396;2022-11-20T08:19:49;22.98;;;16.35;;
57191;SDS011;43052;52.588;13.396;2022-11-20T08:22:14;24.65;;;16.35;;
57191;SDS011;43052;52.588;13.396;2022-11-20T08:24:39;27.85;;;16.20;;
57191;SDS011;43052;52.588;13.396;2022-11-20T08:27:04;26.02;;;17.77;;
57191;SDS011;43052;52.588;13.396;2022-11-20T08:29:29;23.35;;;15.15;;
57191;SDS011;43052;52.588;13.396;2022-11-20T08:31:55;24.50;;;15.82;;
57191;SDS011;43052;52.588;13.396;2022-11-20T08:34:20;25.30;;;15.32;;
57191;SDS011;43052;52.588;13.396;2022-11-20T08:36:45;25.58;;;15.82;;
57191;SDS011;43052;52.588;13.396;2022-11-20T08:39:11;24.13;;;14.73;;
57191;SDS011;43052;52.588;13.396;2022-11-20T08:41:37;24.15;;;14.70;;
57191;SDS011;43052;52.588;13.396;2022-11-20T08:44:03;23.27;;;15.20;;
57191;SDS011;43052;52.588;13.396;2022-11-20T08:46:40;23.90;;;14.93;;
57191;SDS011;43052;52.588;13.396;2022-11-20T08:49:08;23.10;;;14.00;;
57191;SDS011;43052;52.588;13.396;2022-11-20T08:51:35;21.83;;;15.07;;
57191;SDS011;43052;52.588;13.396;2022-11-20T08:54:01;20.95;;;13.75;;
57191;SDS011;43052;52.588;13.396;2022-11-20T08:56:27;22.60;;;13.75;;
57191;SDS011;43052;52.588;13.396;2022-11-20T08:58:52;22.42;;;14.90;;
57191;SDS011;43052;52.588;13.396;2022-11-20T09:01:18;20.83;;;13.15;;
57191;SDS011;43052;52.588;13.396;2022-11-20T09:03:44;21.52;;;14.40;;
57191;SDS011;43052;52.588;13.396;2022-11-20T09:06:10;22.20;;;13.98;;
57191;SDS011;43052;52.588;13.396;2022-11-20T09:08:36;36.47;;;15.93;;
57191;SDS011;43052;52.588;13.396;2022-11-20T09:11:01;21.92;;;13.05;;
57191;SDS011;43052;52.588;13.396;2022-11-20T09:13:27;22.20;;;13.13;;
57191;SDS011;43052;52.588;13.396;2022-11-20T09:15:54;23.27;;;13.93;;
57191;SDS011;43052;52.588;13.396;2022-11-20T09:18:20;20.38;;;13.13;;
57191;SDS011;43052;52.588;13.396;2022-11-20T09:20:45;22.83;;;13.65;;
57191;SDS011;43052;52.588;13.396;2022-11-20T09:23:10;22.05;;;13.25;;
57191;SDS011;43052;52.588;13.396;2022-11-20T09:25:36;21.30;;;13.63;;
57191;SDS011;43052;52.588;13.396;2022-11-20T09:28:01;23.25;;;14.25;;
57191;SDS011;43052;52.588;13.396;2022-11-20T09:30:26;21.23;;;13.15;;
57191;SDS011;43052;52.588;13.396;2022-11-20T09:32:52;23.23;;;14.45;;
57191;SDS011;43052;52.588;13.396;2022-11-20T09:35:17;19.60;;;12.98;;
57191;SDS011;43052;52.588;13.396;2022-11-20T09:37:43;22.83;;;14.35;;
57191;SDS011;43052;52.588;13.396;2022-11-20T09:40:16;21.60;;;14.35;;
57191;SDS011;43052;52.588;13.396;2022-11-20T09:42:47;20.98;;;14.35;;
57191;SDS011;43052;52.588;13.396;2022-11-20T09:45:23;24.45;;;13.90;;
57191;SDS011;43052;52.588;13.396;2022-11-20T09:50:43;22.77;;;14.02;;
57191;SDS011;43052;52.588;13.396;2022-11-20T09:53:42;20.23;;;13.25;;
57191;SDS011;43052;52.588;13.396;2022-11-20T09:56:28;19.85;;;12.90;;
57191;SDS011;43052;52.588;13.396;2022-11-20T09:58:54;19.77;;;13.30;;
57191;SDS011;43052;52.588;13.396;2022-11-20T10:01:23;20.25;;;12.77;;
57191;SDS011;43052;52.588;13.396;2022-11-20T10:03:55;20.00;;;12.45;;
57191;SDS011;43052;52.588;13.396;2022-11-20T10:06:29;19.05;;;13.05;;
57191;SDS011;43052;52.588;13.396;2022-11-20T10:11:48;20.42;;;13.48;;
57191;SDS011;43052;52.588;13.396;2022-11-20T10:19:59;21.02;;;12.68;;
57191;SDS011;43052;52.588;13.396;2022-11-20T10:22:47;20.65;;;13.50;;
57191;SDS011;43052;52.588;13.396;2022-11-20T10:25:22;17.17;;;11.98;;
57191;SDS011;43052;52.588;13.396;2022-11-20T10:28:12;19.92;;;12.45;;
57191;SDS011;43052;52.588;13.396;2022-11-20T10:30:45;19.38;;;12.55;;
57191;SDS011;43052;52.588;13.396;2022-11-20T10:33:17;21.13;;;13.15;;
57191;SDS011;43052;52.588;13.396;2022-11-20T10:35:50;17.63;;;11.68;;
57191;SDS011;43052;52.588;13.396;2022-11-20T10:38:35;17.33;;;11.02;;
57191;SDS011;43052;52.588;13.396;2022-11-20T10:41:05;19.95;;;12.32;;
57191;SDS011;43052;52.588;13.396;2022-11-20T10:43:51;16.92;;;11.70;;
57191;SDS011;43052;52.588;13.396;2022-11-20T10:46:22;19.75;;;12.88;;
57191;SDS011;43052;52.588;13.396;2022-11-20T10:48:48;16.90;;;11.13;;
57191;SDS011;43052;52.588;13.396;2022-11-20T10:51:20;20.33;;;12.20;;
57191;SDS011;43052;52.588;13.396;2022-11-20T10:54:10;15.95;;;11.00;;
57191;SDS011;43052;52.588;13.396;2022-11-20T10:56:51;15.77;;;10.95;;
57191;SDS011;43052;52.588;13.396;2022-11-20T10:59:24;16.27;;;10.73;;
57191;SDS011;43052;52.588;13.396;2022-11-20T11:01:57;18.17;;;11.30;;
57191;SDS011;43052;52.588;13.396;2022-11-20T11:07:19;16.58;;;11.30;;
57191;SDS011;43052;52.588;13.396;2022-11-20T11:09:52;16.20;;;10.70;;
57191;SDS011;43052;52.588;13.396;2022-11-20T11:12:20;16.20;;;11.13;;
57191;SDS011;43052;52.588;13.396;2022-11-20T11:14:48;15.98;;;11.63;;
57191;SDS011;43052;52.588;13.396;2022-11-20T11:20:34;15.43;;;10.75;;
57191;SDS011;43052;52.588;13.396;2022-11-20T11:23:00;16.33;;;10.40;;
57191;SDS011;43052;52.588;13.396;2022-11-20T11:25:26;15.43;;;10.45;;
57191;SDS011;43052;52.588;13.396;2022-11-20T11:28:03;15.93;;;10.40;;
57191;SDS011;43052;52.588;13.396;2022-11-20T11:30:44;15.77;;;9.75;;
57191;SDS011;43052;52.588;13.396;2022-11-20T11:33:11;16.40;;;10.38;;
57191;SDS011;43052;52.588;13.396;2022-11-20T11:35:44;16.55;;;10.98;;
57191;SDS011;43052;52.588;13.396;2022-11-20T11:38:15;16.98;;;10.50;;
57191;SDS011;43052;52.588;13.396;2022-11-20T11:40:44;15.55;;;10.00;;
57191;SDS011;43052;52.588;13.396;2022-11-20T11:43:18;14.73;;;9.63;;
57191;SDS011;43052;52.588;13.396;2022-11-20T11:46:08;15.32;;;10.48;;
57191;SDS011;43052;52.588;13.396;2022-11-20T11:48:56;17.77;;;10.52;;
57191;SDS011;43052;52.588;13.396;2022-11-20T11:59:41;16.27;;;10.90;;
57191;SDS011;43052;52.588;13.396;2022-11-20T12:02:38;17.92;;;11.95;;
57191;SDS011;43052;52.588;13.396;2022-11-20T12:07:42;17.20;;;11.50;;
57191;SDS011;43052;52.588;13.396;2022-11-20T12:12:49;19.15;;;11.00;;
57191;SDS011;43052;52.588;13.396;2022-11-20T12:15:36;15.35;;;9.60;;
57191;SDS011;43052;52.588;13.396;2022-11-20T12:18:10;18.17;;;10.45;;
57191;SDS011;43052;52.588;13.396;2022-11-20T12:20:42;16.17;;;10.75;;
57191;SDS011;43052;52.588;13.396;2022-11-20T12:23:22;16.90;;;10.55;;
57191;SDS011;43052;52.588;13.396;2022-11-20T12:25:57;16.60;;;11.50;;
57191;SDS011;43052;52.588;13.396;2022-11-20T12:28:33;16.45;;;10.27;;
57191;SDS011;43052;52.588;13.396;2022-11-20T12:31:21;16.63;;;11.13;;
57191;SDS011;43052;52.588;13.396;2022-11-20T12:36:41;17.45;;;10.55;;
57191;SDS011;43052;52.588;13.396;2022-11-20T12:42:15;15.77;;;10.50;;
57191;SDS011;43052;52.588;13.396;2022-11-20T12:45:31;15.55;;;9.95;;
57191;SDS011;43052;52.588;13.396;2022-11-20T12:56:50;14.63;;;10.13;;
57191;SDS011;43052;52.588;13.396;2022-11-20T12:59:33;16.35;;;9.73;;
57191;SDS011;43052;52.588;13.396;2022-11-20T13:07:31;15.43;;;9.57;;
57191;SDS011;43052;52.588;13.396;2022-11-20T13:09:58;15.45;;;9.15;;
57191;SDS011;43052;52.588;13.396;2022-11-20T13:12:27;14.95;;;9.73;;
57191;SDS011;43052;52.588;13.396;2022-11-20T13:17:54;16.25;;;9.90;;
57191;SDS011;43052;52.588;13.396;2022-11-20T13:20:22;16.88;;;9.85;;
57191;SDS011;43052;52.588;13.396;2022-11-20T13:22:48;20.45;;;12.65;;
57191;SDS011;43052;52.588;13.396;2022-11-20T13:30:53;16.20;;;9.40;;
57191;SDS011;43052;52.588;13.396;2022-11-20T13:33:25;14.30;;;9.75;;
57191;SDS011;43052;52.588;13.396;2022-11-20T13:35:57;17.35;;;9.30;;
57191;SDS011;43052;52.588;13.396;2022-11-20T13:38:24;15.82;;;9.52;;
57191;SDS011;43052;52.588;13.396;2022-11-20T13:40:50;15.07;;;9.60;;
57191;SDS011;43052;52.588;13.396;2022-11-20T13:43:21;14.15;;;9.15;;
57191;SDS011;43052;52.588;13.396;2022-11-20T13:45:55;14.27;;;9.35;;
57191;SDS011;43052;52.588;13.396;2022-11-20T13:48:23;14.15;;;9.00;;
57191;SDS011;43052;52.588;13.396;2022-11-20T13:53:35;16.13;;;10.35;;
57191;SDS011;43052;52.588;13.396;2022-11-20T13:56:24;14.55;;;9.73;;
57191;SDS011;43052;52.588;13.396;2022-11-20T13:59:23;14.50;;;9.48;;
57191;SDS011;43052;52.588;13.396;2022-11-20T14:02:00;15.25;;;9.93;;
57191;SDS011;43052;52.588;13.396;2022-11-20T14:04:27;17.42;;;10.65;;
57191;SDS011;43052;52.588;13.396;2022-11-20T14:06:56;15.98;;;10.60;;
57191;SDS011;43052;52.588;13.396;2022-11-20T14:09:26;16.17;;;10.30;;
57191;SDS011;43052;52.588;13.396;2022-11-20T14:11:56;16.17;;;10.13;;
57191;SDS011;43052;52.588;13.396;2022-11-20T14:14:22;17.75;;;12.13;;
57191;SDS011;43052;52.588;13.396;2022-11-20T14:16:52;15.85;;;10.00;;
57191;SDS011;43052;52.588;13.396;2022-11-20T14:19:30;16.95;;;10.65;;
57191;SDS011;43052;52.588;13.396;2022-11-20T14:24:39;15.50;;;10.65;;
57191;SDS011;43052;52.588;13.396;2022-11-20T14:27:05;15.65;;;10.70;;
57191;SDS011;43052;52.588;13.396;2022-11-20T14:29:37;17.50;;;10.60;;
57191;SDS011;43052;52.588;13.396;2022-11-20T14:32:03;15.43;;;10.73;;
57191;SDS011;43052;52.588;13.396;2022-11-20T14:34:30;17.20;;;10.95;;
57191;SDS011;43052;52.588;13.396;2022-11-20T14:37:01;16.77;;;11.27;;
57191;SDS011;43052;52.588;13.396;2022-11-20T14:39:32;16.85;;;10.98;;
57191;SDS011;43052;52.588;13.396;2022-11-20T14:42:15;16.08;;;10.45;;
57191;SDS011;43052;52.588;13.396;2022-11-20T14:44:45;15.35;;;10.10;;
57191;SDS011;43052;52.588;13.396;2022-11-20T14:47:12;15.00;;;10.68;;
57191;SDS011;43052;52.588;13.396;2022-11-20T14:49:40;16.20;;;10.63;;
57191;SDS011;43052;52.588;13.396;2022-11-20T14:52:13;16.60;;;11.00;;
57191;SDS011;43052;52.588;13.396;2022-11-20T14:54:47;18.27;;;11.40;;
57191;SDS011;43052;52.588;13.396;2022-11-20T14:57:21;16.80;;;11.25;;
57191;SDS011;43052;52.588;13.396;2022-11-20T15:02:39;18.10;;;11.57;;
57191;SDS011;43052;52.588;13.396;2022-11-20T15:05:06;17.80;;;11.57;;
57191;SDS011;43052;52.588;13.396;2022-11-20T15:07:33;15.07;;;10.63;;
57191;SDS011;43052;52.588;13.396;2022-11-20T15:10:08;17.60;;;10.98;;
57191;SDS011;43052;52.588;13.396;2022-11-20T15:12:47;16.23;;;11.23;;
57191;SDS011;43052;52.588;13.396;2022-11-20T15:15:16;17.98;;;11.30;;
57191;SDS011;43052;52.588;13.396;2022-11-20T15:17:48;17.20;;;11.65;;
57191;SDS011;43052;52.588;13.396;2022-11-20T15:20:14;16.48;;;11.27;;
57191;SDS011;43052;52.588;13.396;2022-11-20T15:22:41;16.02;;;10.20;;
57191;SDS011;43052;52.588;13.396;2022-11-20T15:25:16;15.60;;;10.52;;
57191;SDS011;43052;52.588;13.396;2022-11-20T15:27:42;15.85;;;10.50;;
57191;SDS011;43052;52.588;13.396;2022-11-20T15:30:17;19.67;;;10.48;;
57191;SDS011;43052;52.588;13.396;2022-11-20T15:32:43;17.77;;;11.02;;
57191;SDS011;43052;52.588;13.396;2022-11-20T15:35:09;16.92;;;11.15;;